sensor_id;sensor_type;location;lat;lon;timestamp;pressure;altitude;pressure_sealevel;temperature;humidity
37856;BME280;23694;43.274;26.924;2023-03-22T00:00:53;98634.41;;;8.60;100.00
37856;BME280;23694;43.274;26.924;2023-03-22T00:03:20;98627.72;;;8.56;100.00
37856;BME280;23694;43.274;26.924;2023-03-22T00:05:47;98632.50;;;8.49;100.00
37856;BME280;23694;43.274;26.924;2023-03-22T00:08:13;98626.81;;;8.43;100.00
37856;BME280;23694;43.274;26.924;2023-03-22T00:10:40;98621.44;;;8.46;100.00
37856;BME280;23694;43.274;26.924;2023-03-22T00:13:08;98627.72;;;8.56;100.00
37856;BME280;23694;43.274;26.924;2023-03-22T00:15:35;98624.03;;;8.32;100.00
37856;BME280;23694;43.274;26.924;2023-03-22T00:18:01;98635.03;;;8.37;100.00
37856;BME280;23694;43.274;26.924;2023-03-22T00:20:31;98630.72;;;8.50;100.00
37856;BME280;23694;43.274;26.924;2023-03-22T00:22:59;98632.88;;;8.43;100.00
37856;BME280;23694;43.274;26.924;2023-03-22T00:25:25;98634.19;;;8.36;100.00
37856;BME280;23694;43.274;26.924;2023-03-22T00:27:51;98634.94;;;8.38;100.00
37856;BME280;23694;43.274;26.924;2023-03-22T00:30:17;98638.19;;;8.42;100.00
37856;BME280;23694;43.274;26.924;2023-03-22T00:32:44;98637.06;;;8.32;100.00
37856;BME280;23694;43.274;26.924;2023-03-22T00:35:10;98632.34;;;8.24;100.00
37856;BME280;23694;43.274;26.924;2023-03-22T00:37:37;98637.13;;;8.17;100.00
37856;BME280;23694;43.274;26.924;2023-03-22T00:40:09;98631.25;;;8.14;100.00
37856;BME280;23694;43.274;26.924;2023-03-22T00:42:37;98617.22;;;8.02;100.00
37856;BME280;23694;43.274;26.924;2023-03-22T00:45:04;98626.75;;;7.89;100.00
37856;BME280;23694;43.274;26.924;2023-03-22T00:47:31;98620.34;;;7.80;100.00
37856;BME280;23694;43.274;26.924;2023-03-22T00:49:57;98627.13;;;7.83;100.00
37856;BME280;23694;43.274;26.924;2023-03-22T00:52:24;98633.00;;;7.86;100.00
37856;BME280;23694;43.274;26.924;2023-03-22T00:54:50;98639.59;;;7.78;100.00
37856;BME280;23694;43.274;26.924;2023-03-22T00:57:16;98634.22;;;7.81;100.00
37856;BME280;23694;43.274;26.924;2023-03-22T00:59:43;98627.56;;;7.75;100.00
37856;BME280;23694;43.274;26.924;2023-03-22T01:02:10;98628.69;;;7.71;100.00
37856;BME280;23694;43.274;26.924;2023-03-22T01:04:39;98629.84;;;7.81;100.00
37856;BME280;23694;43.274;26.924;2023-03-22T01:07:12;98624.88;;;7.91;100.00
37856;BME280;23694;43.274;26.924;2023-03-22T01:09:46;98630.44;;;7.99;100.00
37856;BME280;23694;43.274;26.924;2023-03-22T01:12:13;98632.78;;;8.04;100.00
37856;BME280;23694;43.274;26.924;2023-03-22T01:14:40;98634.66;;;7.87;100.00
37856;BME280;23694;43.274;26.924;2023-03-22T01:17:06;98620.66;;;8.03;100.00
37856;BME280;23694;43.274;26.924;2023-03-22T01:19:33;98632.03;;;8.02;100.00
37856;BME280;23694;43.274;26.924;2023-03-22T01:22:00;98628.09;;;8.09;100.00
37856;BME280;23694;43.274;26.924;2023-03-22T01:24:27;98620.00;;;8.13;100.00
37856;BME280;23694;43.274;26.924;2023-03-22T01:26:53;98616.50;;;8.27;100.00
37856;BME280;23694;43.274;26.924;2023-03-22T01:29:19;98628.69;;;8.41;100.00
37856;BME280;23694;43.274;26.924;2023-03-22T01:31:45;98620.09;;;8.53;100.00
37856;BME280;23694;43.274;26.924;2023-03-22T01:34:11;98620.38;;;8.48;100.00
37856;BME280;23694;43.274;26.924;2023-03-22T01:36:37;98619.06;;;8.55;100.00
37856;BME280;23694;43.274;26.924;2023-03-22T01:39:03;98628.56;;;8.56;100.00
37856;BME280;23694;43.274;26.924;2023-03-22T01:41:29;98634.75;;;8.27;100.00
37856;BME280;23694;43.274;26.924;2023-03-22T01:44:16;98640.38;;;8.21;100.00
37856;BME280;23694;43.274;26.924;2023-03-22T01:46:44;98637.28;;;8.28;100.00
37856;BME280;23694;43.274;26.924;2023-03-22T01:49:32;98635.88;;;8.23;100.00
37856;BME280;23694;43.274;26.924;2023-03-22T01:52:05;98638.59;;;8.21;100.00
37856;BME280;23694;43.274;26.924;2023-03-22T01:54:52;98638.06;;;8.16;100.00
37856;BME280;23694;43.274;26.924;2023-03-22T01:57:19;98636.38;;;8.15;100.00
37856;BME280;23694;43.274;26.924;2023-03-22T01:59:46;98622.09;;;8.21;100.00
37856;BME280;23694;43.274;26.924;2023-03-22T02:02:15;98626.28;;;8.23;100.00
37856;BME280;23694;43.274;26.924;2023-03-22T02:04:46;98624.53;;;8.24;100.00
37856;BME280;23694;43.274;26.924;2023-03-22T02:07:16;98636.56;;;8.12;100.00
37856;BME280;23694;43.274;26.924;2023-03-22T02:09:54;98633.72;;;7.88;100.00
37856;BME280;23694;43.274;26.924;2023-03-22T02:12:30;98635.00;;;8.10;100.00
37856;BME280;23694;43.274;26.924;2023-03-22T02:18:20;98635.41;;;8.31;100.00
37856;BME280;23694;43.274;26.924;2023-03-22T02:24:12;98640.38;;;8.21;100.00
37856;BME280;23694;43.274;26.924;2023-03-22T02:37:40;98645.53;;;7.80;100.00
37856;BME280;23694;43.274;26.924;2023-03-22T02:40:15;98658.78;;;7.91;100.00
37856;BME280;23694;43.274;26.924;2023-03-22T02:46:29;98647.59;;;7.75;100.00
37856;BME280;23694;43.274;26.924;2023-03-22T02:49:03;98658.50;;;7.67;100.00
37856;BME280;23694;43.274;26.924;2023-03-22T02:54:03;98655.88;;;7.67;100.00
37856;BME280;23694;43.274;26.924;2023-03-22T02:56:44;98658.50;;;7.67;100.00
37856;BME280;23694;43.274;26.924;2023-03-22T02:59:12;98651.41;;;7.69;100.00
37856;BME280;23694;43.274;26.924;2023-03-22T03:01:58;98662.78;;;7.54;100.00
37856;BME280;23694;43.274;26.924;2023-03-22T03:04:32;98660.34;;;7.37;100.00
37856;BME280;23694;43.274;26.924;2023-03-22T03:07:07;98666.31;;;7.39;100.00
37856;BME280;23694;43.274;26.924;2023-03-22T03:09:35;98660.59;;;7.18;100.00
37856;BME280;23694;43.274;26.924;2023-03-22T03:12:08;98667.59;;;7.31;100.00
37856;BME280;23694;43.274;26.924;2023-03-22T03:14:37;98661.84;;;6.96;100.00
37856;BME280;23694;43.274;26.924;2023-03-22T03:17:21;98662.94;;;6.92;100.00
37856;BME280;23694;43.274;26.924;2023-03-22T03:25:27;98632.06;;;7.59;100.00
37856;BME280;23694;43.274;26.924;2023-03-22T03:28:07;98644.81;;;7.63;100.00
37856;BME280;23694;43.274;26.924;2023-03-22T03:33:52;98649.19;;;7.63;100.00
37856;BME280;23694;43.274;26.924;2023-03-22T03:36:21;98654.69;;;7.73;100.00
37856;BME280;23694;43.274;26.924;2023-03-22T03:38:49;98649.66;;;7.55;100.00
37856;BME280;23694;43.274;26.924;2023-03-22T03:41:20;98651.88;;;7.61;100.00
37856;BME280;23694;43.274;26.924;2023-03-22T03:43:47;98651.78;;;7.63;100.00
37856;BME280;23694;43.274;26.924;2023-03-22T03:46:14;98650.50;;;7.56;100.00
37856;BME280;23694;43.274;26.924;2023-03-22T03:48:44;98659.63;;;7.49;100.00
37856;BME280;23694;43.274;26.924;2023-03-22T03:51:12;98657.28;;;7.58;100.00
37856;BME280;23694;43.274;26.924;2023-03-22T03:53:38;98665.19;;;7.43;100.00
37856;BME280;23694;43.274;26.924;2023-03-22T03:56:05;98654.41;;;7.35;100.00
37856;BME280;23694;43.274;26.924;2023-03-22T03:58:31;98657.09;;;7.33;100.00
37856;BME280;23694;43.274;26.924;2023-03-22T04:00:57;98662.13;;;7.50;100.00
37856;BME280;23694;43.274;26.924;2023-03-22T04:03:23;98657.47;;;7.55;100.00
37856;BME280;23694;43.274;26.924;2023-03-22T04:05:50;98657.38;;;7.57;100.00
37856;BME280;23694;43.274;26.924;2023-03-22T04:08:16;98668.28;;;7.49;100.00
37856;BME280;23694;43.274;26.924;2023-03-22T04:10:42;98673.66;;;7.46;100.00
37856;BME280;23694;43.274;26.924;2023-03-22T04:13:08;98679.06;;;7.43;100.00
37856;BME280;23694;43.274;26.924;2023-03-22T04:15:35;98672.75;;;7.47;100.00
37856;BME280;23694;43.274;26.924;2023-03-22T04:18:01;98667.53;;;7.47;100.00
37856;BME280;23694;43.274;26.924;2023-03-22T04:20:27;98659.63;;;7.49;100.00
37856;BME280;23694;43.274;26.924;2023-03-22T04:22:54;98666.03;;;7.43;100.00
37856;BME280;23694;43.274;26.924;2023-03-22T04:25:22;98664.53;;;7.53;100.00
37856;BME280;23694;43.274;26.924;2023-03-22T04:27:48;98662.31;;;7.76;100.00
37856;BME280;23694;43.274;26.924;2023-03-22T04:30:16;98667.81;;;7.85;100.00
37856;BME280;23694;43.274;26.924;2023-03-22T04:32:48;98667.34;;;7.79;100.00
37856;BME280;23694;43.274;26.924;2023-03-22T04:35:14;98666.34;;;7.81;100.00
37856;BME280;23694;43.274;26.924;2023-03-22T04:37:41;98667.25;;;7.94;100.00
37856;BME280;23694;43.274;26.924;2023-03-22T04:40:09;98668.84;;;7.97;100.00
37856;BME280;23694;43.274;26.924;2023-03-22T04:42:42;98674.88;;;7.98;100.00
37856;BME280;23694;43.274;26.924;2023-03-22T04:45:09;98670.72;;;7.81;100.00
37856;BME280;23694;43.274;26.924;2023-03-22T04:47:36;98671.28;;;7.86;100.00
37856;BME280;23694;43.274;26.924;2023-03-22T04:50:03;98678.72;;;7.92;100.00
37856;BME280;23694;43.274;26.924;2023-03-22T04:52:29;98670.25;;;7.88;100.00
37856;BME280;23694;43.274;26.924;2023-03-22T04:54:55;98674.31;;;8.07;100.00
37856;BME280;23694;43.274;26.924;2023-03-22T04:57:21;98675.59;;;8.14;100.00
37856;BME280;23694;43.274;26.924;2023-03-22T04:59:49;98674.41;;;8.05;100.00
37856;BME280;23694;43.274;26.924;2023-03-22T05:02:15;98675.50;;;8.15;100.00
37856;BME280;23694;43.274;26.924;2023-03-22T05:04:42;98670.75;;;8.22;100.00
37856;BME280;23694;43.274;26.924;2023-03-22T05:07:08;98683.78;;;8.22;100.00
37856;BME280;23694;43.274;26.924;2023-03-22T05:09:34;98692.44;;;8.22;100.00
37856;BME280;23694;43.274;26.924;2023-03-22T05:12:00;98686.59;;;8.33;100.00
37856;BME280;23694;43.274;26.924;2023-03-22T05:14:26;98693.66;;;8.45;100.00
37856;BME280;23694;43.274;26.924;2023-03-22T05:16:52;98697.47;;;8.54;100.00
37856;BME280;23694;43.274;26.924;2023-03-22T05:19:18;98701.84;;;8.53;100.00
37856;BME280;23694;43.274;26.924;2023-03-22T05:21:47;98704.72;;;8.63;100.00
37856;BME280;23694;43.274;26.924;2023-03-22T05:24:13;98705.84;;;8.45;100.00
37856;BME280;23694;43.274;26.924;2023-03-22T05:26:39;98703.72;;;8.51;100.00
37856;BME280;23694;43.274;26.924;2023-03-22T05:29:08;98713.47;;;8.62;100.00
37856;BME280;23694;43.274;26.924;2023-03-22T05:31:35;98712.16;;;8.69;100.00
37856;BME280;23694;43.274;26.924;2023-03-22T05:34:02;98715.69;;;8.68;100.00
37856;BME280;23694;43.274;26.924;2023-03-22T05:36:28;98723.72;;;8.65;100.00
37856;BME280;23694;43.274;26.924;2023-03-22T05:38:55;98728.19;;;8.63;100.00
37856;BME280;23694;43.274;26.924;2023-03-22T05:41:21;98725.16;;;8.56;100.00
37856;BME280;23694;43.274;26.924;2023-03-22T05:43:47;98732.03;;;8.57;100.00
37856;BME280;23694;43.274;26.924;2023-03-22T05:46:15;98733.16;;;8.53;100.00
37856;BME280;23694;43.274;26.924;2023-03-22T05:48:42;98738.28;;;8.55;100.00
37856;BME280;23694;43.274;26.924;2023-03-22T05:51:12;98736.53;;;8.41;100.00
37856;BME280;23694;43.274;26.924;2023-03-22T05:53:43;98734.38;;;8.19;100.00
37856;BME280;23694;43.274;26.924;2023-03-22T05:56:10;98739.78;;;8.31;100.00
37856;BME280;23694;43.274;26.924;2023-03-22T05:58:36;98748.75;;;8.41;100.00
37856;BME280;23694;43.274;26.924;2023-03-22T06:01:10;98754.25;;;8.36;100.00
37856;BME280;23694;43.274;26.924;2023-03-22T06:03:37;98749.84;;;8.22;100.00
37856;BME280;23694;43.274;26.924;2023-03-22T06:06:08;98748.06;;;8.23;100.00
37856;BME280;23694;43.274;26.924;2023-03-22T06:08:36;98757.59;;;8.10;100.00
37856;BME280;23694;43.274;26.924;2023-03-22T06:11:03;98763.56;;;7.98;100.00
37856;BME280;23694;43.274;26.924;2023-03-22T06:13:30;98759.00;;;8.01;100.00
37856;BME280;23694;43.274;26.924;2023-03-22T06:15:58;98759.81;;;8.16;100.00
37856;BME280;23694;43.274;26.924;2023-03-22T06:18:25;98768.22;;;8.35;100.00
37856;BME280;23694;43.274;26.924;2023-03-22T06:20:51;98757.22;;;8.44;100.00
37856;BME280;23694;43.274;26.924;2023-03-22T06:23:17;98768.59;;;8.57;100.00
37856;BME280;23694;43.274;26.924;2023-03-22T06:25:44;98765.34;;;8.54;100.00
37856;BME280;23694;43.274;26.924;2023-03-22T06:28:10;98760.91;;;8.69;100.00
37856;BME280;23694;43.274;26.924;2023-03-22T06:30:36;98770.03;;;8.76;100.00
37856;BME280;23694;43.274;26.924;2023-03-22T06:33:03;98761.94;;;8.93;100.00
37856;BME280;23694;43.274;26.924;2023-03-22T06:35:32;98762.16;;;8.90;100.00
37856;BME280;23694;43.274;26.924;2023-03-22T06:37:58;98770.88;;;9.03;100.00
37856;BME280;23694;43.274;26.924;2023-03-22T06:40:24;98774.59;;;9.13;100.00
37856;BME280;23694;43.274;26.924;2023-03-22T06:42:51;98775.13;;;9.18;100.00
37856;BME280;23694;43.274;26.924;2023-03-22T06:45:20;98783.50;;;9.24;100.00
37856;BME280;23694;43.274;26.924;2023-03-22T06:47:46;98777.47;;;9.36;100.00
37856;BME280;23694;43.274;26.924;2023-03-22T06:50:12;98775.91;;;9.46;100.00
37856;BME280;23694;43.274;26.924;2023-03-22T06:52:40;98790.88;;;9.57;100.00
37856;BME280;23694;43.274;26.924;2023-03-22T06:55:07;98786.81;;;9.65;100.00
37856;BME280;23694;43.274;26.924;2023-03-22T06:57:33;98787.44;;;9.56;100.00
37856;BME280;23694;43.274;26.924;2023-03-22T06:59:59;98798.72;;;9.57;100.00
37856;BME280;23694;43.274;26.924;2023-03-22T07:02:25;98799.44;;;9.46;100.00
37856;BME280;23694;43.274;26.924;2023-03-22T07:04:51;98787.31;;;9.45;100.00
37856;BME280;23694;43.274;26.924;2023-03-22T07:07:17;98797.69;;;9.59;100.00
37856;BME280;23694;43.274;26.924;2023-03-22T07:09:43;98797.19;;;9.67;100.00
37856;BME280;23694;43.274;26.924;2023-03-22T07:12:09;98799.91;;;9.65;100.00
37856;BME280;23694;43.274;26.924;2023-03-22T07:14:35;98792.09;;;9.78;100.00
37856;BME280;23694;43.274;26.924;2023-03-22T07:17:01;98798.38;;;9.75;100.00
37856;BME280;23694;43.274;26.924;2023-03-22T07:19:27;98794.97;;;9.61;100.00
37856;BME280;23694;43.274;26.924;2023-03-22T07:21:54;98803.25;;;9.67;100.00
37856;BME280;23694;43.274;26.924;2023-03-22T07:24:20;98805.44;;;9.73;100.00
37856;BME280;23694;43.274;26.924;2023-03-22T07:26:46;98803.88;;;9.71;100.00
37856;BME280;23694;43.274;26.924;2023-03-22T07:29:12;98802.50;;;9.65;100.00
37856;BME280;23694;43.274;26.924;2023-03-22T07:31:38;98809.00;;;9.72;100.00
37856;BME280;23694;43.274;26.924;2023-03-22T07:34:05;98809.84;;;9.73;100.00
37856;BME280;23694;43.274;26.924;2023-03-22T07:36:31;98804.22;;;9.79;100.00
37856;BME280;23694;43.274;26.924;2023-03-22T07:38:58;98802.66;;;9.89;100.00
37856;BME280;23694;43.274;26.924;2023-03-22T07:41:24;98808.84;;;9.88;100.00
37856;BME280;23694;43.274;26.924;2023-03-22T07:43:51;98809.56;;;9.90;100.00
37856;BME280;23694;43.274;26.924;2023-03-22T07:46:17;98809.56;;;9.90;100.00
37856;BME280;23694;43.274;26.924;2023-03-22T07:48:43;98813.25;;;9.88;100.00
37856;BME280;23694;43.274;26.924;2023-03-22T07:51:09;98815.44;;;9.94;100.00
37856;BME280;23694;43.274;26.924;2023-03-22T07:53:36;98812.19;;;10.03;100.00
37856;BME280;23694;43.274;26.924;2023-03-22T07:56:03;98810.84;;;9.97;100.00
37856;BME280;23694;43.274;26.924;2023-03-22T07:58:30;98821.50;;;9.81;100.00
37856;BME280;23694;43.274;26.924;2023-03-22T08:00:56;98825.75;;;9.70;100.00
37856;BME280;23694;43.274;26.924;2023-03-22T08:03:23;98823.63;;;9.62;100.00
37856;BME280;23694;43.274;26.924;2023-03-22T08:05:50;98831.41;;;9.10;100.00
37856;BME280;23694;43.274;26.924;2023-03-22T08:08:16;98833.16;;;9.24;100.00
37856;BME280;23694;43.274;26.924;2023-03-22T08:10:47;98836.16;;;9.44;100.00
37856;BME280;23694;43.274;26.924;2023-03-22T08:13:13;98837.38;;;9.39;100.00
37856;BME280;23694;43.274;26.924;2023-03-22T08:15:39;98834.13;;;9.35;100.00
37856;BME280;23694;43.274;26.924;2023-03-22T08:18:05;98837.28;;;9.40;100.00
37856;BME280;23694;43.274;26.924;2023-03-22T08:20:33;98840.50;;;9.31;100.00
37856;BME280;23694;43.274;26.924;2023-03-22T08:22:59;98841.84;;;9.10;100.00
37856;BME280;23694;43.274;26.924;2023-03-22T08:25:25;98839.06;;;9.13;100.00
37856;BME280;23694;43.274;26.924;2023-03-22T08:27:51;98835.47;;;9.28;100.00
37856;BME280;23694;43.274;26.924;2023-03-22T08:30:18;98850.91;;;9.18;100.00
37856;BME280;23694;43.274;26.924;2023-03-22T08:32:44;98842.72;;;9.10;100.00
37856;BME280;23694;43.274;26.924;2023-03-22T08:35:10;98853.09;;;8.98;100.00
37856;BME280;23694;43.274;26.924;2023-03-22T08:37:36;98847.13;;;8.96;100.00
37856;BME280;23694;43.274;26.924;2023-03-22T08:40:02;98841.84;;;8.83;100.00
37856;BME280;23694;43.274;26.924;2023-03-22T08:42:32;98856.00;;;8.79;100.00
37856;BME280;23694;43.274;26.924;2023-03-22T08:44:58;98860.69;;;8.74;100.00
37856;BME280;23694;43.274;26.924;2023-03-22T08:47:24;98853.13;;;8.69;100.00
37856;BME280;23694;43.274;26.924;2023-03-22T08:49:50;98855.94;;;8.66;100.00
37856;BME280;23694;43.274;26.924;2023-03-22T08:52:16;98855.28;;;8.63;100.00
37856;BME280;23694;43.274;26.924;2023-03-22T08:54:42;98860.91;;;8.56;100.00
37856;BME280;23694;43.274;26.924;2023-03-22T08:57:09;98861.00;;;8.55;100.00
37856;BME280;23694;43.274;26.924;2023-03-22T08:59:35;98863.88;;;8.50;100.00
37856;BME280;23694;43.274;26.924;2023-03-22T09:02:01;98870.59;;;8.54;100.00
37856;BME280;23694;43.274;26.924;2023-03-22T09:04:28;98868.44;;;8.47;100.00
37856;BME280;23694;43.274;26.924;2023-03-22T09:06:54;98875.44;;;8.46;100.00
37856;BME280;23694;43.274;26.924;2023-03-22T09:09:20;98871.81;;;8.49;100.00
37856;BME280;23694;43.274;26.924;2023-03-22T09:11:46;98863.97;;;8.63;100.00
37856;BME280;23694;43.274;26.924;2023-03-22T09:14:12;98865.91;;;8.74;100.00
37856;BME280;23694;43.274;26.924;2023-03-22T09:16:38;98875.53;;;8.59;100.00
37856;BME280;23694;43.274;26.924;2023-03-22T09:19:04;98872.06;;;8.73;100.00
37856;BME280;23694;43.274;26.924;2023-03-22T09:21:31;98860.13;;;8.83;100.00
37856;BME280;23694;43.274;26.924;2023-03-22T09:23:57;98868.66;;;8.99;100.00
37856;BME280;23694;43.274;26.924;2023-03-22T09:26:23;98874.47;;;8.90;100.00
37856;BME280;23694;43.274;26.924;2023-03-22T09:28:50;98867.00;;;8.84;100.00
37856;BME280;23694;43.274;26.924;2023-03-22T09:31:16;98862.63;;;8.84;100.00
37856;BME280;23694;43.274;26.924;2023-03-22T09:33:42;98872.03;;;8.87;100.00
37856;BME280;23694;43.274;26.924;2023-03-22T09:36:09;98857.97;;;8.75;100.00
37856;BME280;23694;43.274;26.924;2023-03-22T09:38:37;98865.53;;;8.80;100.00
37856;BME280;23694;43.274;26.924;2023-03-22T09:41:28;98865.53;;;8.80;100.00
37856;BME280;23694;43.274;26.924;2023-03-22T09:43:58;98864.50;;;8.82;100.00
37856;BME280;23694;43.274;26.924;2023-03-22T09:46:37;98868.69;;;8.85;100.00
37856;BME280;23694;43.274;26.924;2023-03-22T09:49:15;98863.47;;;8.85;100.00
37856;BME280;23694;43.274;26.924;2023-03-22T09:51:53;98870.19;;;8.75;100.00
37856;BME280;23694;43.274;26.924;2023-03-22T09:54:40;98869.91;;;8.79;100.00
37856;BME280;23694;43.274;26.924;2023-03-22T09:57:32;98874.13;;;8.68;100.00
37856;BME280;23694;43.274;26.924;2023-03-22T10:00:21;98868.25;;;8.78;100.00
37856;BME280;23694;43.274;26.924;2023-03-22T10:08:39;98868.13;;;8.94;100.00
37856;BME280;23694;43.274;26.924;2023-03-22T10:11:22;98873.25;;;8.96;100.00
37856;BME280;23694;43.274;26.924;2023-03-22T10:14:14;98885.06;;;8.30;100.00
37856;BME280;23694;43.274;26.924;2023-03-22T10:16:46;98884.50;;;8.25;100.00
37856;BME280;23694;43.274;26.924;2023-03-22T10:19:50;98879.91;;;8.58;100.00
37856;BME280;23694;43.274;26.924;2023-03-22T10:22:30;98887.38;;;8.50;100.00
37856;BME280;23694;43.274;26.924;2023-03-22T10:24:59;98878.72;;;8.50;100.00
37856;BME280;23694;43.274;26.924;2023-03-22T10:27:28;98878.34;;;8.26;100.00
37856;BME280;23694;43.274;26.924;2023-03-22T10:30:07;98877.97;;;8.32;100.00
37856;BME280;23694;43.274;26.924;2023-03-22T10:32:43;98873.94;;;8.56;100.00
37856;BME280;23694;43.274;26.924;2023-03-22T10:35:13;98884.38;;;8.56;100.00
37856;BME280;23694;43.274;26.924;2023-03-22T10:37:42;98876.28;;;8.47;100.00
37856;BME280;23694;43.274;26.924;2023-03-22T10:40:17;98879.63;;;8.49;100.00
37856;BME280;23694;43.274;26.924;2023-03-22T10:43:31;98872.84;;;8.31;100.00
37856;BME280;23694;43.274;26.924;2023-03-22T10:45:38;98877.03;;;8.05;100.00
37856;BME280;23694;43.274;26.924;2023-03-22T10:48:08;98873.25;;;7.80;100.00
37856;BME280;23694;43.274;26.924;2023-03-22T10:50:39;98876.81;;;7.93;100.00
37856;BME280;23694;43.274;26.924;2023-03-22T10:53:41;98874.16;;;7.79;100.00
37856;BME280;23694;43.274;26.924;2023-03-22T10:56:12;98872.31;;;7.81;100.00
37856;BME280;23694;43.274;26.924;2023-03-22T10:58:40;98871.34;;;7.98;100.00
37856;BME280;23694;43.274;26.924;2023-03-22T11:01:31;98862.66;;;7.98;100.00
37856;BME280;23694;43.274;26.924;2023-03-22T11:06:29;98860.91;;;7.98;100.00
37856;BME280;23694;43.274;26.924;2023-03-22T11:09:00;98858.09;;;8.01;100.00
37856;BME280;23694;43.274;26.924;2023-03-22T11:11:27;98860.72;;;8.45;100.00
37856;BME280;23694;43.274;26.924;2023-03-22T11:14:13;98858.88;;;8.32;100.00
37856;BME280;23694;43.274;26.924;2023-03-22T11:19:25;98859.16;;;8.27;100.00
37856;BME280;23694;43.274;26.924;2023-03-22T11:21:57;98855.44;;;8.17;100.00
37856;BME280;23694;43.274;26.924;2023-03-22T11:24:29;98860.88;;;8.42;100.00
37856;BME280;23694;43.274;26.924;2023-03-22T11:27:10;98841.81;;;8.26;100.00
37856;BME280;23694;43.274;26.924;2023-03-22T11:29:44;98855.31;;;8.48;100.00
37856;BME280;23694;43.274;26.924;2023-03-22T11:34:45;98861.00;;;7.97;100.00
37856;BME280;23694;43.274;26.924;2023-03-22T11:37:15;98854.72;;;7.85;100.00
37856;BME280;23694;43.274;26.924;2023-03-22T11:39:46;98856.03;;;7.92;100.00
37856;BME280;23694;43.274;26.924;2023-03-22T11:42:18;98854.41;;;8.19;100.00
37856;BME280;23694;43.274;26.924;2023-03-22T11:44:45;98844.63;;;8.23;100.00
37856;BME280;23694;43.274;26.924;2023-03-22T11:47:12;98855.44;;;8.31;100.00
37856;BME280;23694;43.274;26.924;2023-03-22T11:49:46;98851.56;;;8.52;100.00
37856;BME280;23694;43.274;26.924;2023-03-22T11:52:24;98842.91;;;8.52;100.00
37856;BME280;23694;43.274;26.924;2023-03-22T11:54:52;98844.13;;;8.46;100.00
37856;BME280;23694;43.274;26.924;2023-03-22T11:57:23;98849.25;;;8.48;100.00
37856;BME280;23694;43.274;26.924;2023-03-22T12:00:20;98848.63;;;8.14;100.00
37856;BME280;23694;43.274;26.924;2023-03-22T12:02:52;98847.31;;;8.07;100.00
37856;BME280;23694;43.274;26.924;2023-03-22T12:05:37;98848.31;;;7.90;100.00
37856;BME280;23694;43.274;26.924;2023-03-22T12:08:38;98844.53;;;8.10;100.00
37856;BME280;23694;43.274;26.924;2023-03-22T12:11:13;98837.81;;;8.20;100.00
37856;BME280;23694;43.274;26.924;2023-03-22T12:14:21;98841.91;;;8.24;100.00
37856;BME280;23694;43.274;26.924;2023-03-22T12:16:51;98840.88;;;7.99;100.00
37856;BME280;23694;43.274;26.924;2023-03-22T12:19:44;98844.59;;;7.94;100.00
37856;BME280;23694;43.274;26.924;2023-03-22T12:22:17;98839.75;;;7.88;100.00
37856;BME280;23694;43.274;26.924;2023-03-22T12:24:45;98843.28;;;7.87;100.00
37856;BME280;23694;43.274;26.924;2023-03-22T12:27:22;98845.53;;;7.63;100.00
37856;BME280;23694;43.274;26.924;2023-03-22T12:30:16;98841.81;;;7.68;100.00
37856;BME280;23694;43.274;26.924;2023-03-22T12:35:35;98839.78;;;7.73;100.00
37856;BME280;23694;43.274;26.924;2023-03-22T12:38:56;98836.50;;;7.69;100.00
37856;BME280;23694;43.274;26.924;2023-03-22T12:41:01;98830.06;;;7.60;100.00
37856;BME280;23694;43.274;26.924;2023-03-22T12:46:18;98830.94;;;7.75;100.00
37856;BME280;23694;43.274;26.924;2023-03-22T12:49:01;98830.91;;;7.91;100.00
37856;BME280;23694;43.274;26.924;2023-03-22T12:51:29;98832.47;;;7.93;100.00
37856;BME280;23694;43.274;26.924;2023-03-22T12:53:57;98836.38;;;7.86;100.00
37856;BME280;23694;43.274;26.924;2023-03-22T12:56:39;98845.53;;;7.93;100.00
37856;BME280;23694;43.274;26.924;2023-03-22T12:59:14;98843.56;;;7.97;100.00
37856;BME280;23694;43.274;26.924;2023-03-22T13:01:47;98833.63;;;8.04;100.00
37856;BME280;23694;43.274;26.924;2023-03-22T13:17:32;98832.28;;;7.82;100.00
37856;BME280;23694;43.274;26.924;2023-03-22T13:35:27;98825.31;;;7.97;100.00
37856;BME280;23694;43.274;26.924;2023-03-22T13:38:08;98820.56;;;8.18;100.00
37856;BME280;23694;43.274;26.924;2023-03-22T13:43:11;98825.31;;;7.83;100.00
37856;BME280;23694;43.274;26.924;2023-03-22T14:01:41;98824.31;;;7.70;100.00
37856;BME280;23694;43.274;26.924;2023-03-22T14:04:25;98825.69;;;7.61;100.00
37856;BME280;23694;43.274;26.924;2023-03-22T14:06:56;98823.91;;;7.91;100.00
37856;BME280;23694;43.274;26.924;2023-03-22T14:09:30;98821.66;;;7.85;100.00
37856;BME280;23694;43.274;26.924;2023-03-22T14:14:56;98825.06;;;7.72;100.00
37856;BME280;23694;43.274;26.924;2023-03-22T14:17:30;98825.03;;;8.02;100.00
37856;BME280;23694;43.274;26.924;2023-03-22T14:20:00;98815.16;;;7.92;100.00
37856;BME280;23694;43.274;26.924;2023-03-22T14:22:36;98826.91;;;8.00;100.00
37856;BME280;23694;43.274;26.924;2023-03-22T14:25:07;98828.31;;;8.05;100.00
37856;BME280;23694;43.274;26.924;2023-03-22T14:27:34;98816.56;;;8.12;100.00
37856;BME280;23694;43.274;26.924;2023-03-22T14:30:02;98828.41;;;8.18;100.00
37856;BME280;23694;43.274;26.924;2023-03-22T14:32:29;98827.28;;;7.93;100.00
37856;BME280;23694;43.274;26.924;2023-03-22T14:35:19;98825.31;;;8.11;100.00
37856;BME280;23694;43.274;26.924;2023-03-22T14:37:46;98826.63;;;8.04;100.00
37856;BME280;23694;43.274;26.924;2023-03-22T14:40:15;98815.00;;;8.24;100.00
37856;BME280;23694;43.274;26.924;2023-03-22T14:42:43;98830.09;;;8.19;100.00
37856;BME280;23694;43.274;26.924;2023-03-22T14:45:17;98824.16;;;8.45;100.00
37856;BME280;23694;43.274;26.924;2023-03-22T14:47:45;98825.84;;;8.61;100.00